sensor_id;sensor_type;location;lat;lon;timestamp;temperature;humidity
530;DHT22;251;48.704;9.210;2023-05-21T00:01:41;14.70;45.50
530;DHT22;251;48.704;9.210;2023-05-21T00:04:08;14.60;45.90
530;DHT22;251;48.704;9.210;2023-05-21T00:06:36;14.70;46.20
530;DHT22;251;48.704;9.210;2023-05-21T00:09:04;14.50;46.20
530;DHT22;251;48.704;9.210;2023-05-21T00:11:32;14.80;46.70
530;DHT22;251;48.704;9.210;2023-05-21T00:13:59;14.50;47.20
530;DHT22;251;48.704;9.210;2023-05-21T00:16:26;14.50;47.90
530;DHT22;251;48.704;9.210;2023-05-21T00:18:52;14.70;47.70
530;DHT22;251;48.704;9.210;2023-05-21T00:21:20;14.60;47.60
530;DHT22;251;48.704;9.210;2023-05-21T00:23:47;14.40;48.10
530;DHT22;251;48.704;9.210;2023-05-21T00:26:15;14.60;48.80
530;DHT22;251;48.704;9.210;2023-05-21T00:28:42;14.20;48.60
530;DHT22;251;48.704;9.210;2023-05-21T00:31:09;14.60;49.30
530;DHT22;251;48.704;9.210;2023-05-21T00:33:36;14.20;49.00
530;DHT22;251;48.704;9.210;2023-05-21T00:36:03;14.40;49.10
530;DHT22;251;48.704;9.210;2023-05-21T00:38:30;14.30;49.50
530;DHT22;251;48.704;9.210;2023-05-21T00:40:59;14.40;49.70
530;DHT22;251;48.704;9.210;2023-05-21T00:43:27;14.30;49.90
530;DHT22;251;48.704;9.210;2023-05-21T00:45:54;14.30;49.90
530;DHT22;251;48.704;9.210;2023-05-21T00:48:23;14.10;50.50
530;DHT22;251;48.704;9.210;2023-05-21T00:50:50;14.00;50.10
530;DHT22;251;48.704;9.210;2023-05-21T00:53:18;14.00;50.20
530;DHT22;251;48.704;9.210;2023-05-21T00:55:45;14.20;50.30
530;DHT22;251;48.704;9.210;2023-05-21T00:58:13;14.20;50.90
530;DHT22;251;48.704;9.210;2023-05-21T01:00:43;14.10;51.40
530;DHT22;251;48.704;9.210;2023-05-21T01:03:11;14.20;51.50
530;DHT22;251;48.704;9.210;2023-05-21T01:05:38;14.00;52.30
530;DHT22;251;48.704;9.210;2023-05-21T01:08:05;13.90;52.20
530;DHT22;251;48.704;9.210;2023-05-21T01:10:32;14.20;53.50
530;DHT22;251;48.704;9.210;2023-05-21T01:12:59;14.20;52.90
530;DHT22;251;48.704;9.210;2023-05-21T01:15:26;13.90;52.80
530;DHT22;251;48.704;9.210;2023-05-21T01:17:54;13.90;53.50
530;DHT22;251;48.704;9.210;2023-05-21T01:20:22;13.90;55.80
530;DHT22;251;48.704;9.210;2023-05-21T01:22:52;13.80;55.30
530;DHT22;251;48.704;9.210;2023-05-21T01:25:19;13.80;54.50
530;DHT22;251;48.704;9.210;2023-05-21T01:27:46;14.10;54.50
530;DHT22;251;48.704;9.210;2023-05-21T01:30:13;13.80;55.90
530;DHT22;251;48.704;9.210;2023-05-21T01:32:47;13.80;54.80
530;DHT22;251;48.704;9.210;2023-05-21T01:35:19;13.60;55.00
530;DHT22;251;48.704;9.210;2023-05-21T01:37:52;13.80;55.10
530;DHT22;251;48.704;9.210;2023-05-21T01:40:24;13.60;55.60
530;DHT22;251;48.704;9.210;2023-05-21T01:42:54;13.70;55.30
530;DHT22;251;48.704;9.210;2023-05-21T01:45:23;13.70;57.20
530;DHT22;251;48.704;9.210;2023-05-21T01:47:53;13.80;58.00
530;DHT22;251;48.704;9.210;2023-05-21T01:50:21;13.70;57.80
530;DHT22;251;48.704;9.210;2023-05-21T01:52:50;13.60;57.10
530;DHT22;251;48.704;9.210;2023-05-21T01:55:18;13.70;56.90
530;DHT22;251;48.704;9.210;2023-05-21T01:57:49;13.30;58.40
530;DHT22;251;48.704;9.210;2023-05-21T02:00:17;13.30;58.60
530;DHT22;251;48.704;9.210;2023-05-21T02:02:45;13.60;59.10
530;DHT22;251;48.704;9.210;2023-05-21T02:05:11;13.50;59.40
530;DHT22;251;48.704;9.210;2023-05-21T02:07:38;13.70;58.50
530;DHT22;251;48.704;9.210;2023-05-21T02:10:06;13.60;57.80
530;DHT22;251;48.704;9.210;2023-05-21T02:12:35;13.40;59.00
530;DHT22;251;48.704;9.210;2023-05-21T02:15:01;13.50;62.90
530;DHT22;251;48.704;9.210;2023-05-21T02:17:29;13.40;61.70
530;DHT22;251;48.704;9.210;2023-05-21T02:19:58;13.30;61.00
530;DHT22;251;48.704;9.210;2023-05-21T02:22:32;13.20;60.90
530;DHT22;251;48.704;9.210;2023-05-21T02:24:59;13.40;61.10
530;DHT22;251;48.704;9.210;2023-05-21T02:27:26;13.60;61.20
530;DHT22;251;48.704;9.210;2023-05-21T02:29:57;13.70;59.20
530;DHT22;251;48.704;9.210;2023-05-21T02:32:24;13.10;57.60
530;DHT22;251;48.704;9.210;2023-05-21T02:34:51;13.30;60.30
530;DHT22;251;48.704;9.210;2023-05-21T02:37:18;13.30;63.40
530;DHT22;251;48.704;9.210;2023-05-21T02:39:44;13.50;61.30
530;DHT22;251;48.704;9.210;2023-05-21T02:42:11;13.40;60.50
530;DHT22;251;48.704;9.210;2023-05-21T02:44:38;13.00;60.30
530;DHT22;251;48.704;9.210;2023-05-21T02:47:06;13.20;60.90
530;DHT22;251;48.704;9.210;2023-05-21T02:49:35;13.20;61.30
530;DHT22;251;48.704;9.210;2023-05-21T02:52:02;13.00;61.90
530;DHT22;251;48.704;9.210;2023-05-21T02:54:30;13.00;61.90
530;DHT22;251;48.704;9.210;2023-05-21T02:56:56;13.10;62.40
530;DHT22;251;48.704;9.210;2023-05-21T02:59:23;12.90;61.90
530;DHT22;251;48.704;9.210;2023-05-21T03:01:50;13.10;61.70
530;DHT22;251;48.704;9.210;2023-05-21T03:04:18;13.00;61.50
530;DHT22;251;48.704;9.210;2023-05-21T03:06:46;13.20;61.50
530;DHT22;251;48.704;9.210;2023-05-21T03:09:13;13.00;62.00
530;DHT22;251;48.704;9.210;2023-05-21T03:11:42;13.10;63.30
530;DHT22;251;48.704;9.210;2023-05-21T03:14:08;12.80;63.00
530;DHT22;251;48.704;9.210;2023-05-21T03:16:36;12.90;64.20
530;DHT22;251;48.704;9.210;2023-05-21T03:19:06;13.20;64.00
530;DHT22;251;48.704;9.210;2023-05-21T03:21:34;12.90;64.20
530;DHT22;251;48.704;9.210;2023-05-21T03:24:01;12.90;64.30
530;DHT22;251;48.704;9.210;2023-05-21T03:26:28;12.90;64.70
530;DHT22;251;48.704;9.210;2023-05-21T03:28:57;12.90;65.00
530;DHT22;251;48.704;9.210;2023-05-21T03:31:25;12.80;64.70
530;DHT22;251;48.704;9.210;2023-05-21T03:34:07;12.90;65.40
530;DHT22;251;48.704;9.210;2023-05-21T03:36:35;12.80;64.90
530;DHT22;251;48.704;9.210;2023-05-21T03:39:03;13.00;65.90
530;DHT22;251;48.704;9.210;2023-05-21T03:41:32;12.60;68.70
530;DHT22;251;48.704;9.210;2023-05-21T03:44:05;12.60;65.90
530;DHT22;251;48.704;9.210;2023-05-21T03:46:44;12.70;66.60
530;DHT22;251;48.704;9.210;2023-05-21T03:49:19;12.50;66.30
530;DHT22;251;48.704;9.210;2023-05-21T03:51:49;12.60;68.20
530;DHT22;251;48.704;9.210;2023-05-21T03:54:18;12.90;67.20
530;DHT22;251;48.704;9.210;2023-05-21T03:56:46;12.60;66.70
530;DHT22;251;48.704;9.210;2023-05-21T03:59:14;12.50;67.20
530;DHT22;251;48.704;9.210;2023-05-21T04:01:44;12.50;67.70
530;DHT22;251;48.704;9.210;2023-05-21T04:04:13;12.70;68.20
530;DHT22;251;48.704;9.210;2023-05-21T04:06:40;12.60;65.60
530;DHT22;251;48.704;9.210;2023-05-21T04:09:11;12.70;66.00
530;DHT22;251;48.704;9.210;2023-05-21T04:11:38;12.50;66.00
530;DHT22;251;48.704;9.210;2023-05-21T04:14:04;12.60;65.80
530;DHT22;251;48.704;9.210;2023-05-21T04:16:31;12.80;65.70
530;DHT22;251;48.704;9.210;2023-05-21T04:18:59;12.60;65.70
530;DHT22;251;48.704;9.210;2023-05-21T04:21:28;12.80;66.80
530;DHT22;251;48.704;9.210;2023-05-21T04:23:56;12.50;66.80
530;DHT22;251;48.704;9.210;2023-05-21T04:27:02;12.70;66.50
530;DHT22;251;48.704;9.210;2023-05-21T04:29:30;12.60;66.10
530;DHT22;251;48.704;9.210;2023-05-21T04:31:57;12.90;67.00
530;DHT22;251;48.704;9.210;2023-05-21T04:34:24;12.90;68.70
530;DHT22;251;48.704;9.210;2023-05-21T04:36:50;12.70;69.20
530;DHT22;251;48.704;9.210;2023-05-21T04:39:18;12.80;66.70
530;DHT22;251;48.704;9.210;2023-05-21T04:41:45;13.00;66.10
530;DHT22;251;48.704;9.210;2023-05-21T04:44:15;12.80;65.90
530;DHT22;251;48.704;9.210;2023-05-21T04:46:44;13.00;65.80
530;DHT22;251;48.704;9.210;2023-05-21T04:49:11;12.90;65.00
530;DHT22;251;48.704;9.210;2023-05-21T04:51:38;12.90;64.70
530;DHT22;251;48.704;9.210;2023-05-21T04:54:05;13.00;68.20
530;DHT22;251;48.704;9.210;2023-05-21T04:56:33;12.90;70.30
530;DHT22;251;48.704;9.210;2023-05-21T04:59:00;12.90;71.00
530;DHT22;251;48.704;9.210;2023-05-21T05:01:29;12.90;70.40
530;DHT22;251;48.704;9.210;2023-05-21T05:03:56;13.30;69.30
530;DHT22;251;48.704;9.210;2023-05-21T05:06:23;13.40;68.90
530;DHT22;251;48.704;9.210;2023-05-21T05:08:51;13.10;68.20
530;DHT22;251;48.704;9.210;2023-05-21T05:11:19;13.30;67.20
530;DHT22;251;48.704;9.210;2023-05-21T05:13:46;13.20;67.60
530;DHT22;251;48.704;9.210;2023-05-21T05:16:13;13.30;66.40
530;DHT22;251;48.704;9.210;2023-05-21T05:18:43;13.40;65.20
530;DHT22;251;48.704;9.210;2023-05-21T05:21:10;13.90;64.10
530;DHT22;251;48.704;9.210;2023-05-21T05:23:37;13.70;63.50
530;DHT22;251;48.704;9.210;2023-05-21T05:26:06;14.20;61.90
530;DHT22;251;48.704;9.210;2023-05-21T05:28:33;14.10;62.50
530;DHT22;251;48.704;9.210;2023-05-21T05:31:00;14.20;62.80
530;DHT22;251;48.704;9.210;2023-05-21T05:33:27;14.00;61.10
530;DHT22;251;48.704;9.210;2023-05-21T05:35:55;14.30;61.00
530;DHT22;251;48.704;9.210;2023-05-21T05:38:22;14.60;58.90
530;DHT22;251;48.704;9.210;2023-05-21T05:40:49;14.60;58.40
530;DHT22;251;48.704;9.210;2023-05-21T05:43:16;14.50;59.10
530;DHT22;251;48.704;9.210;2023-05-21T05:45:43;14.60;57.50
530;DHT22;251;48.704;9.210;2023-05-21T05:48:13;14.80;57.90
530;DHT22;251;48.704;9.210;2023-05-21T05:50:41;14.90;56.20
530;DHT22;251;48.704;9.210;2023-05-21T05:53:09;15.20;55.40
530;DHT22;251;48.704;9.210;2023-05-21T05:55:37;15.30;54.20
530;DHT22;251;48.704;9.210;2023-05-21T05:58:04;15.30;54.60
530;DHT22;251;48.704;9.210;2023-05-21T06:00:46;15.40;55.00
530;DHT22;251;48.704;9.210;2023-05-21T06:03:13;15.70;54.30
530;DHT22;251;48.704;9.210;2023-05-21T06:05:41;15.80;51.00
530;DHT22;251;48.704;9.210;2023-05-21T06:08:09;16.00;49.40
530;DHT22;251;48.704;9.210;2023-05-21T06:10:36;16.10;50.00
530;DHT22;251;48.704;9.210;2023-05-21T06:13:03;16.10;51.20
530;DHT22;251;48.704;9.210;2023-05-21T06:15:30;16.00;50.20
530;DHT22;251;48.704;9.210;2023-05-21T06:17:57;16.10;47.80
530;DHT22;251;48.704;9.210;2023-05-21T06:20:24;16.20;45.10
530;DHT22;251;48.704;9.210;2023-05-21T06:22:52;16.60;44.10
530;DHT22;251;48.704;9.210;2023-05-21T06:25:20;16.50;43.00
530;DHT22;251;48.704;9.210;2023-05-21T06:27:47;16.70;43.40
530;DHT22;251;48.704;9.210;2023-05-21T06:30:19;16.80;40.90
530;DHT22;251;48.704;9.210;2023-05-21T06:32:46;17.10;39.00
530;DHT22;251;48.704;9.210;2023-05-21T06:35:14;17.00;38.50
530;DHT22;251;48.704;9.210;2023-05-21T06:37:40;16.80;37.70
530;DHT22;251;48.704;9.210;2023-05-21T06:40:08;17.10;35.10
530;DHT22;251;48.704;9.210;2023-05-21T06:42:37;17.10;35.10
530;DHT22;251;48.704;9.210;2023-05-21T06:45:19;17.30;34.70
530;DHT22;251;48.704;9.210;2023-05-21T06:47:49;17.40;36.10
530;DHT22;251;48.704;9.210;2023-05-21T06:50:16;17.50;36.30
530;DHT22;251;48.704;9.210;2023-05-21T06:52:43;17.60;35.60
530;DHT22;251;48.704;9.210;2023-05-21T06:55:10;17.80;32.00
530;DHT22;251;48.704;9.210;2023-05-21T06:58:00;18.00;28.70
530;DHT22;251;48.704;9.210;2023-05-21T07:00:27;18.10;27.40
530;DHT22;251;48.704;9.210;2023-05-21T07:02:53;18.20;27.00
530;DHT22;251;48.704;9.210;2023-05-21T07:05:20;18.30;26.80
530;DHT22;251;48.704;9.210;2023-05-21T07:07:47;18.50;26.40
530;DHT22;251;48.704;9.210;2023-05-21T07:10:14;18.60;25.00
530;DHT22;251;48.704;9.210;2023-05-21T07:12:41;18.90;24.10
530;DHT22;251;48.704;9.210;2023-05-21T07:15:10;18.60;23.80
530;DHT22;251;48.704;9.210;2023-05-21T07:17:38;18.70;24.10
530;DHT22;251;48.704;9.210;2023-05-21T07:20:06;18.80;24.60
530;DHT22;251;48.704;9.210;2023-05-21T07:22:37;18.90;23.50
530;DHT22;251;48.704;9.210;2023-05-21T07:25:05;19.00;23.60
530;DHT22;251;48.704;9.210;2023-05-21T07:27:33;19.10;22.00
530;DHT22;251;48.704;9.210;2023-05-21T07:30:00;19.30;23.00
530;DHT22;251;48.704;9.210;2023-05-21T07:32:29;19.30;21.60
530;DHT22;251;48.704;9.210;2023-05-21T07:34:59;19.30;20.60
530;DHT22;251;48.704;9.210;2023-05-21T07:37:27;19.40;21.60
530;DHT22;251;48.704;9.210;2023-05-21T07:39:56;19.50;20.60
530;DHT22;251;48.704;9.210;2023-05-21T07:42:23;19.60;20.50
530;DHT22;251;48.704;9.210;2023-05-21T07:44:52;19.70;19.90
530;DHT22;251;48.704;9.210;2023-05-21T07:47:19;19.80;18.90
530;DHT22;251;48.704;9.210;2023-05-21T07:49:47;19.90;19.20
530;DHT22;251;48.704;9.210;2023-05-21T07:52:14;20.00;19.10
530;DHT22;251;48.704;9.210;2023-05-21T07:54:41;20.10;17.80
530;DHT22;251;48.704;9.210;2023-05-21T07:57:08;20.30;18.20
530;DHT22;251;48.704;9.210;2023-05-21T07:59:58;20.40;17.70
530;DHT22;251;48.704;9.210;2023-05-21T08:02:29;20.60;17.70
530;DHT22;251;48.704;9.210;2023-05-21T08:04:57;20.70;17.10
530;DHT22;251;48.704;9.210;2023-05-21T08:07:26;20.80;15.80
530;DHT22;251;48.704;9.210;2023-05-21T08:09:53;20.90;15.20
530;DHT22;251;48.704;9.210;2023-05-21T08:12:20;20.90;15.20
530;DHT22;251;48.704;9.210;2023-05-21T08:14:47;21.00;15.70
530;DHT22;251;48.704;9.210;2023-05-21T08:17:15;21.10;15.40
530;DHT22;251;48.704;9.210;2023-05-21T08:19:43;21.20;14.60
530;DHT22;251;48.704;9.210;2023-05-21T08:22:11;21.40;15.20
530;DHT22;251;48.704;9.210;2023-05-21T08:24:41;21.60;15.10
530;DHT22;251;48.704;9.210;2023-05-21T08:27:08;21.70;14.80
530;DHT22;251;48.704;9.210;2023-05-21T08:29:35;21.80;13.30
530;DHT22;251;48.704;9.210;2023-05-21T08:32:05;21.90;14.40
530;DHT22;251;48.704;9.210;2023-05-21T08:34:32;21.80;12.60
530;DHT22;251;48.704;9.210;2023-05-21T08:37:19;21.80;12.60
530;DHT22;251;48.704;9.210;2023-05-21T08:39:58;21.70;12.50
530;DHT22;251;48.704;9.210;2023-05-21T08:42:35;21.90;12.90
530;DHT22;251;48.704;9.210;2023-05-21T08:45:05;21.90;12.40
530;DHT22;251;48.704;9.210;2023-05-21T08:47:34;22.00;11.80
530;DHT22;251;48.704;9.210;2023-05-21T08:50:03;22.10;11.40
530;DHT22;251;48.704;9.210;2023-05-21T08:52:32;22.20;11.50
530;DHT22;251;48.704;9.210;2023-05-21T08:54:59;22.10;11.00
530;DHT22;251;48.704;9.210;2023-05-21T08:57:29;22.30;10.70
530;DHT22;251;48.704;9.210;2023-05-21T08:59:57;22.50;10.10
530;DHT22;251;48.704;9.210;2023-05-21T09:02:26;22.70;10.00
530;DHT22;251;48.704;9.210;2023-05-21T09:04:55;22.80;10.00
530;DHT22;251;48.704;9.210;2023-05-21T09:07:25;22.80;9.50
530;DHT22;251;48.704;9.210;2023-05-21T09:10:13;22.80;10.10
530;DHT22;251;48.704;9.210;2023-05-21T09:12:41;22.70;9.60
530;DHT22;251;48.704;9.210;2023-05-21T09:15:09;22.70;9.10
530;DHT22;251;48.704;9.210;2023-05-21T09:17:37;22.50;9.50
530;DHT22;251;48.704;9.210;2023-05-21T09:20:26;22.70;9.50
530;DHT22;251;48.704;9.210;2023-05-21T09:23:02;22.70;10.00
530;DHT22;251;48.704;9.210;2023-05-21T09:25:30;22.70;10.00
530;DHT22;251;48.704;9.210;2023-05-21T09:28:10;22.80;10.30
530;DHT22;251;48.704;9.210;2023-05-21T09:30:43;22.80;10.90
530;DHT22;251;48.704;9.210;2023-05-21T09:33:11;22.80;10.00
530;DHT22;251;48.704;9.210;2023-05-21T09:35:43;22.90;10.50
530;DHT22;251;48.704;9.210;2023-05-21T09:38:11;23.00;11.00
530;DHT22;251;48.704;9.210;2023-05-21T09:40:42;23.10;11.00
530;DHT22;251;48.704;9.210;2023-05-21T09:43:13;23.30;10.30
530;DHT22;251;48.704;9.210;2023-05-21T09:45:50;23.50;9.10
530;DHT22;251;48.704;9.210;2023-05-21T09:48:32;23.70;9.50
530;DHT22;251;48.704;9.210;2023-05-21T09:51:11;23.90;9.50
530;DHT22;251;48.704;9.210;2023-05-21T09:53:49;24.10;7.10
530;DHT22;251;48.704;9.210;2023-05-21T09:56:19;24.20;7.30
530;DHT22;251;48.704;9.210;2023-05-21T09:58:49;24.30;7.40
530;DHT22;251;48.704;9.210;2023-05-21T10:01:18;24.30;8.50
530;DHT22;251;48.704;9.210;2023-05-21T10:03:48;24.20;7.80
530;DHT22;251;48.704;9.210;2023-05-21T10:06:16;24.20;8.20
530;DHT22;251;48.704;9.210;2023-05-21T10:08:47;24.20;8.70
530;DHT22;251;48.704;9.210;2023-05-21T10:11:15;24.20;7.80
530;DHT22;251;48.704;9.210;2023-05-21T10:13:47;24.30;8.30
530;DHT22;251;48.704;9.210;2023-05-21T10:16:17;24.40;9.40
530;DHT22;251;48.704;9.210;2023-05-21T10:18:45;24.50;9.20
530;DHT22;251;48.704;9.210;2023-05-21T10:21:14;24.40;7.90
530;DHT22;251;48.704;9.210;2023-05-21T10:23:42;24.40;8.70
530;DHT22;251;48.704;9.210;2023-05-21T10:26:09;24.70;8.90
530;DHT22;251;48.704;9.210;2023-05-21T10:28:38;24.80;7.70
530;DHT22;251;48.704;9.210;2023-05-21T10:31:07;24.80;7.30
530;DHT22;251;48.704;9.210;2023-05-21T10:33:34;24.90;7.40
530;DHT22;251;48.704;9.210;2023-05-21T10:36:01;25.10;6.70
530;DHT22;251;48.704;9.210;2023-05-21T10:38:29;25.10;6.20
530;DHT22;251;48.704;9.210;2023-05-21T10:40:57;25.20;6.60
530;DHT22;251;48.704;9.210;2023-05-21T10:43:47;25.10;6.30
530;DHT22;251;48.704;9.210;2023-05-21T10:49:25;25.50;5.90
530;DHT22;251;48.704;9.210;2023-05-21T10:52:03;25.80;4.90
530;DHT22;251;48.704;9.210;2023-05-21T10:54:46;26.00;4.80
530;DHT22;251;48.704;9.210;2023-05-21T10:57:30;26.20;4.70
530;DHT22;251;48.704;9.210;2023-05-21T11:00:00;26.40;4.70
530;DHT22;251;48.704;9.210;2023-05-21T11:02:30;26.20;3.30
530;DHT22;251;48.704;9.210;2023-05-21T11:04:57;26.60;3.90
530;DHT22;251;48.704;9.210;2023-05-21T11:07:49;27.00;3.60
530;DHT22;251;48.704;9.210;2023-05-21T11:10:29;27.30;3.20
530;DHT22;251;48.704;9.210;2023-05-21T11:13:13;27.40;2.20
530;DHT22;251;48.704;9.210;2023-05-21T11:16:15;27.40;2.20
530;DHT22;251;48.704;9.210;2023-05-21T11:19:01;27.60;1.90
530;DHT22;251;48.704;9.210;2023-05-21T11:21:29;27.50;1.00
530;DHT22;251;48.704;9.210;2023-05-21T11:24:03;27.30;2.10
530;DHT22;251;48.704;9.210;2023-05-21T11:26:58;27.30;2.20
530;DHT22;251;48.704;9.210;2023-05-21T11:29:44;27.50;1.40
530;DHT22;251;48.704;9.210;2023-05-21T11:32:14;27.50;1.60
530;DHT22;251;48.704;9.210;2023-05-21T11:34:47;27.90;2.90
530;DHT22;251;48.704;9.210;2023-05-21T11:37:27;28.10;1.00
530;DHT22;251;48.704;9.210;2023-05-21T11:39:56;28.30;1.00
530;DHT22;251;48.704;9.210;2023-05-21T11:42:31;28.30;1.00
530;DHT22;251;48.704;9.210;2023-05-21T11:44:59;28.40;1.00
530;DHT22;251;48.704;9.210;2023-05-21T11:47:27;28.50;1.00
530;DHT22;251;48.704;9.210;2023-05-21T11:49:57;28.70;1.00
530;DHT22;251;48.704;9.210;2023-05-21T11:52:24;28.70;1.00
530;DHT22;251;48.704;9.210;2023-05-21T11:54:52;28.60;1.00
530;DHT22;251;48.704;9.210;2023-05-21T11:57:21;28.60;1.00
530;DHT22;251;48.704;9.210;2023-05-21T11:59:49;28.70;1.00
530;DHT22;251;48.704;9.210;2023-05-21T12:02:17;28.80;1.00
530;DHT22;251;48.704;9.210;2023-05-21T12:04:46;28.70;1.00
530;DHT22;251;48.704;9.210;2023-05-21T12:07:15;28.60;1.00
530;DHT22;251;48.704;9.210;2023-05-21T12:09:44;28.70;1.00
530;DHT22;251;48.704;9.210;2023-05-21T12:12:13;28.70;1.00
530;DHT22;251;48.704;9.210;2023-05-21T12:14:43;28.70;1.00
530;DHT22;251;48.704;9.210;2023-05-21T12:17:10;28.70;1.00
530;DHT22;251;48.704;9.210;2023-05-21T12:19:38;28.70;1.00
530;DHT22;251;48.704;9.210;2023-05-21T12:22:06;28.70;1.00
530;DHT22;251;48.704;9.210;2023-05-21T12:24:35;28.80;1.00
530;DHT22;251;48.704;9.210;2023-05-21T12:27:04;28.80;1.00
530;DHT22;251;48.704;9.210;2023-05-21T12:29:36;28.70;1.00
530;DHT22;251;48.704;9.210;2023-05-21T12:32:04;28.80;1.00
530;DHT22;251;48.704;9.210;2023-05-21T12:34:36;28.90;1.00
530;DHT22;251;48.704;9.210;2023-05-21T12:37:04;29.00;1.00
530;DHT22;251;48.704;9.210;2023-05-21T12:39:35;29.00;1.00
530;DHT22;251;48.704;9.210;2023-05-21T12:42:03;29.20;1.00
530;DHT22;251;48.704;9.210;2023-05-21T12:44:30;29.20;1.00
530;DHT22;251;48.704;9.210;2023-05-21T12:46:57;29.20;1.00
530;DHT22;251;48.704;9.210;2023-05-21T12:49:34;29.20;1.00
530;DHT22;251;48.704;9.210;2023-05-21T12:52:03;29.10;1.00
530;DHT22;251;48.704;9.210;2023-05-21T12:54:35;29.20;1.00
530;DHT22;251;48.704;9.210;2023-05-21T12:57:08;29.30;1.00
530;DHT22;251;48.704;9.210;2023-05-21T12:59:53;29.30;1.00
530;DHT22;251;48.704;9.210;2023-05-21T13:02:22;29.30;1.00
530;DHT22;251;48.704;9.210;2023-05-21T13:04:54;29.30;1.00
530;DHT22;251;48.704;9.210;2023-05-21T13:07:22;29.40;1.00
530;DHT22;251;48.704;9.210;2023-05-21T13:09:50;29.40;1.00
530;DHT22;251;48.704;9.210;2023-05-21T13:12:18;29.30;1.00
530;DHT22;251;48.704;9.210;2023-05-21T13:14:46;29.20;1.00
530;DHT22;251;48.704;9.210;2023-05-21T13:17:14;29.30;1.00
530;DHT22;251;48.704;9.210;2023-05-21T13:19:41;29.40;1.00
530;DHT22;251;48.704;9.210;2023-05-21T13:22:07;29.70;1.00
530;DHT22;251;48.704;9.210;2023-05-21T13:24:35;30.00;1.00
530;DHT22;251;48.704;9.210;2023-05-21T13:27:05;30.20;1.00
530;DHT22;251;48.704;9.210;2023-05-21T13:29:32;30.50;1.00
530;DHT22;251;48.704;9.210;2023-05-21T13:32:00;30.60;1.00
530;DHT22;251;48.704;9.210;2023-05-21T13:34:27;30.70;1.00
530;DHT22;251;48.704;9.210;2023-05-21T13:36:53;31.00;1.00
530;DHT22;251;48.704;9.210;2023-05-21T13:39:20;31.30;1.00
530;DHT22;251;48.704;9.210;2023-05-21T13:41:51;31.50;1.00
530;DHT22;251;48.704;9.210;2023-05-21T13:44:19;31.90;1.00
530;DHT22;251;48.704;9.210;2023-05-21T13:46:46;32.30;1.00
530;DHT22;251;48.704;9.210;2023-05-21T13:49:13;32.60;1.00
530;DHT22;251;48.704;9.210;2023-05-21T13:51:39;33.20;1.00
530;DHT22;251;48.704;9.210;2023-05-21T13:54:06;33.70;1.00
530;DHT22;251;48.704;9.210;2023-05-21T13:56:33;34.00;1.00
530;DHT22;251;48.704;9.210;2023-05-21T13:59:00;34.60;1.00
530;DHT22;251;48.704;9.210;2023-05-21T14:01:28;35.10;1.00
530;DHT22;251;48.704;9.210;2023-05-21T14:03:55;35.50;1.00
530;DHT22;251;48.704;9.210;2023-05-21T14:06:22;35.60;1.00
530;DHT22;251;48.704;9.210;2023-05-21T14:08:49;35.80;1.00
530;DHT22;251;48.704;9.210;2023-05-21T14:11:16;35.60;1.00
530;DHT22;251;48.704;9.210;2023-05-21T14:13:43;35.00;1.00
530;DHT22;251;48.704;9.210;2023-05-21T14:16:09;34.90;1.00
530;DHT22;251;48.704;9.210;2023-05-21T14:18:37;34.80;1.00
530;DHT22;251;48.704;9.210;2023-05-21T14:21:04;34.80;1.00
530;DHT22;251;48.704;9.210;2023-05-21T14:23:31;34.90;1.00
530;DHT22;251;48.704;9.210;2023-05-21T14:25:58;34.70;1.00
530;DHT22;251;48.704;9.210;2023-05-21T14:28:25;34.60;1.00
530;DHT22;251;48.704;9.210;2023-05-21T14:30:52;34.60;1.00
530;DHT22;251;48.704;9.210;2023-05-21T14:33:19;34.50;1.00
530;DHT22;251;48.704;9.210;2023-05-21T14:35:47;34.60;1.00
530;DHT22;251;48.704;9.210;2023-05-21T14:38:14;34.30;1.00
530;DHT22;251;48.704;9.210;2023-05-21T14:40:41;33.80;1.00
530;DHT22;251;48.704;9.210;2023-05-21T14:43:07;33.20;1.00
530;DHT22;251;48.704;9.210;2023-05-21T14:45:34;32.80;1.00
530;DHT22;251;48.704;9.210;2023-05-21T14:48:01;32.40;1.00
530;DHT22;251;48.704;9.210;2023-05-21T14:50:32;32.10;1.00
530;DHT22;251;48.704;9.210;2023-05-21T14:53:03;31.90;1.00
530;DHT22;251;48.704;9.210;2023-05-21T14:55:30;31.50;1.00
530;DHT22;251;48.704;9.210;2023-05-21T14:57:59;31.40;1.00
530;DHT22;251;48.704;9.210;2023-05-21T15:00:26;31.20;1.00
530;DHT22;251;48.704;9.210;2023-05-21T15:02:53;31.00;1.00
530;DHT22;251;48.704;9.210;2023-05-21T15:05:20;31.00;1.00
530;DHT22;251;48.704;9.210;2023-05-21T15:07:47;31.00;1.00
530;DHT22;251;48.704;9.210;2023-05-21T15:10:16;30.90;1.00
530;DHT22;251;48.704;9.210;2023-05-21T15:12:42;30.80;1.00
530;DHT22;251;48.704;9.210;2023-05-21T15:15:10;30.70;1.00
530;DHT22;251;48.704;9.210;2023-05-21T15:17:37;30.60;1.00
530;DHT22;251;48.704;9.210;2023-05-21T15:20:06;30.50;1.00
530;DHT22;251;48.704;9.210;2023-05-21T15:22:34;30.50;1.00
530;DHT22;251;48.704;9.210;2023-05-21T15:25:02;30.30;1.00
530;DHT22;251;48.704;9.210;2023-05-21T15:27:30;30.40;1.00
530;DHT22;251;48.704;9.210;2023-05-21T15:29:57;30.50;1.00
530;DHT22;251;48.704;9.210;2023-05-21T15:32:24;30.70;1.00
530;DHT22;251;48.704;9.210;2023-05-21T15:34:51;30.90;1.00
530;DHT22;251;48.704;9.210;2023-05-21T15:37:18;30.90;1.00
530;DHT22;251;48.704;9.210;2023-05-21T15:39:47;31.00;1.00
530;DHT22;251;48.704;9.210;2023-05-21T15:42:14;31.10;1.00
530;DHT22;251;48.704;9.210;2023-05-21T15:44:42;31.20;1.00
530;DHT22;251;48.704;9.210;2023-05-21T15:47:09;31.40;1.00
530;DHT22;251;48.704;9.210;2023-05-21T15:49:36;31.50;1.00
530;DHT22;251;48.704;9.210;2023-05-21T15:52:03;31.40;1.00
530;DHT22;251;48.704;9.210;2023-05-21T15:54:30;31.20;1.00
530;DHT22;251;48.704;9.210;2023-05-21T15:56:57;30.90;1.00
530;DHT22;251;48.704;9.210;2023-05-21T15:59:23;30.60;1.00
530;DHT22;251;48.704;9.210;2023-05-21T16:01:53;30.40;1.00
530;DHT22;251;48.704;9.210;2023-05-21T16:04:21;30.10;1.00
530;DHT22;251;48.704;9.210;2023-05-21T16:06:48;29.90;1.00
530;DHT22;251;48.704;9.210;2023-05-21T16:09:14;29.60;1.00
530;DHT22;251;48.704;9.210;2023-05-21T16:11:41;29.50;1.00
530;DHT22;251;48.704;9.210;2023-05-21T16:14:09;29.40;1.00
530;DHT22;251;48.704;9.210;2023-05-21T16:16:36;29.30;1.00
530;DHT22;251;48.704;9.210;2023-05-21T16:19:04;29.20;1.00
530;DHT22;251;48.704;9.210;2023-05-21T16:21:31;29.20;1.00
530;DHT22;251;48.704;9.210;2023-05-21T16:23:58;29.10;1.00
530;DHT22;251;48.704;9.210;2023-05-21T16:26:25;29.00;1.00
530;DHT22;251;48.704;9.210;2023-05-21T16:28:52;29.00;1.00
530;DHT22;251;48.704;9.210;2023-05-21T16:31:19;28.90;1.00
530;DHT22;251;48.704;9.210;2023-05-21T16:33:46;28.90;1.00
530;DHT22;251;48.704;9.210;2023-05-21T16:36:14;28.70;4.70
530;DHT22;251;48.704;9.210;2023-05-21T16:38:41;28.70;6.60
530;DHT22;251;48.704;9.210;2023-05-21T16:41:09;28.50;2.60
530;DHT22;251;48.704;9.210;2023-05-21T16:43:36;28.30;2.20
530;DHT22;251;48.704;9.210;2023-05-21T16:46:03;28.20;2.80
530;DHT22;251;48.704;9.210;2023-05-21T16:48:30;28.00;5.10
530;DHT22;251;48.704;9.210;2023-05-21T16:50:58;27.80;6.00
530;DHT22;251;48.704;9.210;2023-05-21T16:53:27;27.70;8.90
530;DHT22;251;48.704;9.210;2023-05-21T16:55:54;27.50;7.60
530;DHT22;251;48.704;9.210;2023-05-21T16:58:20;27.30;6.20